Hauptseite
METAR-TAF:

METAR-TAF

Flughäfen :

Militärflugplatz Istrana

Treviso, Italien

Breite: 45-41N, Länge: 012-06E, Höhe: 45 m

Beobachtung

Neuester Wetterbericht von vor 25 Minuten, um 01:55 UTC
Wind 4 kt aus Nord/Nordost
Temperatur 18°C
Luftfeuchtigkeit 77%
Luftdruck 1019 hPa
Sichtweite 10 km oder mehr
keine Wolken unter 1500 m und keine Kumulonimbus oder Gewitterwolken

METAR: LIPS 230155Z 02004KT CAVOK 18/14 Q1019 RMK SKC VIS MIN 9999 WIND THR26 34003KT WIND THR08 02004KT BLU

Zeit: 04:20 (02:20 UTC)

Prognose

Neuester Wetterbericht von vor 3 Stunden und 20 Minuten, um 23:00 UTC
Gültige Prognose vom 23 um 00 UTC bis 23 um 09 UTC
Wind 6 kt aus Ost/Nordost
Sichtweite 10 km oder mehr
Durchbrochene Bewölkung in der Höhe von 7000 ft

TAF: LIPS 222300Z 2300/2309 07006KT 9999 BKN070

Wetterbeobachtungen und Prognosen von mehr als 4000 Flughäfen (METAR und TAF Bericht).

Die verfügbaren Stationen werden durch gelbe und rote Markierungen auf der Karte dargestellt.

Führen Sie die Maus auf sie, um den Namen der Station zu sehen.

Darauf klicken, um die Beobachtung von Wetterbeobachtungen und Prognosen zu sehen.

Um die Karte zu ändern : klicken Sie auf den grünen Tasten mit einem schwarzen Kreuz Zum Vergrößern, auf den grünen Button mit einem Gedankenstrich zu verkleinern, oder auf die grünen Pfeile für benachbarte Karten.


METAR-TAF: